sensor_id;sensor_type;location;lat;lon;timestamp;temperature;humidity
45233;DHT22;30969;51.052;17.056;2023-03-23T00:03:36;14.60;56.00
45233;DHT22;30969;51.052;17.056;2023-03-23T00:08:40;14.60;56.00
45233;DHT22;30969;51.052;17.056;2023-03-23T00:13:49;14.60;56.00
45233;DHT22;30969;51.052;17.056;2023-03-23T00:18:52;14.50;56.00
45233;DHT22;30969;51.052;17.056;2023-03-23T00:23:56;14.50;57.10
45233;DHT22;30969;51.052;17.056;2023-03-23T00:29:01;14.40;56.30
45233;DHT22;30969;51.052;17.056;2023-03-23T00:34:04;14.40;56.50
45233;DHT22;30969;51.052;17.056;2023-03-23T00:39:09;14.30;56.70
45233;DHT22;30969;51.052;17.056;2023-03-23T00:44:12;14.30;56.70
45233;DHT22;30969;51.052;17.056;2023-03-23T00:49:19;14.30;56.80
45233;DHT22;30969;51.052;17.056;2023-03-23T00:54:27;14.20;57.10
45233;DHT22;30969;51.052;17.056;2023-03-23T00:59:30;14.20;57.20
45233;DHT22;30969;51.052;17.056;2023-03-23T01:04:32;14.20;57.30
45233;DHT22;30969;51.052;17.056;2023-03-23T01:09:39;14.20;57.30
45233;DHT22;30969;51.052;17.056;2023-03-23T01:14:45;14.20;57.30
45233;DHT22;30969;51.052;17.056;2023-03-23T01:19:48;14.10;57.30
45233;DHT22;30969;51.052;17.056;2023-03-23T01:24:52;14.20;57.40
45233;DHT22;30969;51.052;17.056;2023-03-23T01:29:55;14.20;57.30
45233;DHT22;30969;51.052;17.056;2023-03-23T01:34:57;14.20;57.20
45233;DHT22;30969;51.052;17.056;2023-03-23T01:40:02;14.20;57.10
45233;DHT22;30969;51.052;17.056;2023-03-23T01:45:32;14.20;57.00
45233;DHT22;30969;51.052;17.056;2023-03-23T01:50:41;14.20;57.10
45233;DHT22;30969;51.052;17.056;2023-03-23T01:55:48;14.20;57.20
45233;DHT22;30969;51.052;17.056;2023-03-23T02:00:52;14.20;57.30
45233;DHT22;30969;51.052;17.056;2023-03-23T02:05:57;14.20;57.60
45233;DHT22;30969;51.052;17.056;2023-03-23T02:11:01;14.20;57.50
45233;DHT22;30969;51.052;17.056;2023-03-23T02:16:11;14.20;58.50
45233;DHT22;30969;51.052;17.056;2023-03-23T02:21:43;14.20;57.60
45233;DHT22;30969;51.052;17.056;2023-03-23T02:26:55;14.20;57.70
45233;DHT22;30969;51.052;17.056;2023-03-23T02:32:12;14.20;57.80
45233;DHT22;30969;51.052;17.056;2023-03-23T02:37:22;14.20;57.80
45233;DHT22;30969;51.052;17.056;2023-03-23T02:42:28;14.20;57.80
45233;DHT22;30969;51.052;17.056;2023-03-23T02:47:33;14.10;57.90
45233;DHT22;30969;51.052;17.056;2023-03-23T02:52:40;14.10;58.10
45233;DHT22;30969;51.052;17.056;2023-03-23T02:57:44;14.20;58.20
45233;DHT22;30969;51.052;17.056;2023-03-23T03:02:49;14.10;58.20
45233;DHT22;30969;51.052;17.056;2023-03-23T03:08:14;14.20;58.20
45233;DHT22;30969;51.052;17.056;2023-03-23T03:13:25;14.20;58.20
45233;DHT22;30969;51.052;17.056;2023-03-23T03:18:34;14.10;58.30
45233;DHT22;30969;51.052;17.056;2023-03-23T03:23:41;14.20;59.30
45233;DHT22;30969;51.052;17.056;2023-03-23T03:28:45;14.10;58.30
45233;DHT22;30969;51.052;17.056;2023-03-23T03:33:49;14.10;58.30
45233;DHT22;30969;51.052;17.056;2023-03-23T03:38:54;14.10;58.40
45233;DHT22;30969;51.052;17.056;2023-03-23T03:43:58;14.10;58.40
45233;DHT22;30969;51.052;17.056;2023-03-23T03:49:02;14.00;58.30
45233;DHT22;30969;51.052;17.056;2023-03-23T03:54:06;14.00;58.50
45233;DHT22;30969;51.052;17.056;2023-03-23T03:59:09;14.00;58.60
45233;DHT22;30969;51.052;17.056;2023-03-23T04:04:13;14.00;58.70
45233;DHT22;30969;51.052;17.056;2023-03-23T04:09:17;14.00;58.70
45233;DHT22;30969;51.052;17.056;2023-03-23T04:14:20;13.90;58.80
45233;DHT22;30969;51.052;17.056;2023-03-23T04:19:23;13.90;58.80
45233;DHT22;30969;51.052;17.056;2023-03-23T04:24:26;13.90;58.80
45233;DHT22;30969;51.052;17.056;2023-03-23T04:29:33;13.90;58.80
45233;DHT22;30969;51.052;17.056;2023-03-23T04:34:35;13.90;59.00
45233;DHT22;30969;51.052;17.056;2023-03-23T04:39:39;13.90;58.90
45233;DHT22;30969;51.052;17.056;2023-03-23T04:44:42;13.90;59.10
45233;DHT22;30969;51.052;17.056;2023-03-23T04:49:45;13.90;59.20
45233;DHT22;30969;51.052;17.056;2023-03-23T04:54:48;13.90;59.30
45233;DHT22;30969;51.052;17.056;2023-03-23T04:59:51;13.90;59.30
45233;DHT22;30969;51.052;17.056;2023-03-23T05:04:53;13.90;59.20
45233;DHT22;30969;51.052;17.056;2023-03-23T05:09:57;13.90;59.20
45233;DHT22;30969;51.052;17.056;2023-03-23T05:15:00;14.00;59.10
45233;DHT22;30969;51.052;17.056;2023-03-23T05:20:04;14.00;59.00
45233;DHT22;30969;51.052;17.056;2023-03-23T05:25:10;14.00;58.90
45233;DHT22;30969;51.052;17.056;2023-03-23T05:30:13;14.00;58.90
45233;DHT22;30969;51.052;17.056;2023-03-23T05:35:18;14.10;59.00
45233;DHT22;30969;51.052;17.056;2023-03-23T05:40:23;14.10;58.90
45233;DHT22;30969;51.052;17.056;2023-03-23T05:45:27;14.10;58.80
45233;DHT22;30969;51.052;17.056;2023-03-23T05:50:29;14.10;58.70
45233;DHT22;30969;51.052;17.056;2023-03-23T05:55:33;14.10;58.60
45233;DHT22;30969;51.052;17.056;2023-03-23T06:00:35;14.20;58.60
45233;DHT22;30969;51.052;17.056;2023-03-23T06:05:41;14.30;58.40
45233;DHT22;30969;51.052;17.056;2023-03-23T06:10:46;14.30;58.30
45233;DHT22;30969;51.052;17.056;2023-03-23T06:15:49;14.30;58.20
45233;DHT22;30969;51.052;17.056;2023-03-23T06:20:53;14.40;58.20
45233;DHT22;30969;51.052;17.056;2023-03-23T06:25:59;14.40;58.00
45233;DHT22;30969;51.052;17.056;2023-03-23T06:31:03;14.50;58.40
45233;DHT22;30969;51.052;17.056;2023-03-23T06:36:08;14.60;58.20
45233;DHT22;30969;51.052;17.056;2023-03-23T06:41:14;14.60;59.00
45233;DHT22;30969;51.052;17.056;2023-03-23T06:46:16;14.70;57.70
45233;DHT22;30969;51.052;17.056;2023-03-23T06:51:19;14.80;57.60
45233;DHT22;30969;51.052;17.056;2023-03-23T06:56:23;14.80;57.50
45233;DHT22;30969;51.052;17.056;2023-03-23T07:01:26;14.90;57.40
45233;DHT22;30969;51.052;17.056;2023-03-23T07:06:29;14.90;57.00
45233;DHT22;30969;51.052;17.056;2023-03-23T07:11:32;15.00;56.90
45233;DHT22;30969;51.052;17.056;2023-03-23T07:16:35;15.10;56.90
45233;DHT22;30969;51.052;17.056;2023-03-23T07:21:37;15.10;56.80
45233;DHT22;30969;51.052;17.056;2023-03-23T07:26:41;15.20;56.60
45233;DHT22;30969;51.052;17.056;2023-03-23T07:31:43;15.20;56.40
45233;DHT22;30969;51.052;17.056;2023-03-23T07:36:47;15.30;56.80
45233;DHT22;30969;51.052;17.056;2023-03-23T07:41:50;15.40;56.80
45233;DHT22;30969;51.052;17.056;2023-03-23T07:46:53;15.50;56.90
45233;DHT22;30969;51.052;17.056;2023-03-23T07:51:55;15.60;56.90
45233;DHT22;30969;51.052;17.056;2023-03-23T07:57:00;15.70;56.90
45233;DHT22;30969;51.052;17.056;2023-03-23T08:02:02;15.80;57.10
45233;DHT22;30969;51.052;17.056;2023-03-23T08:07:04;15.80;56.70
45233;DHT22;30969;51.052;17.056;2023-03-23T08:12:08;15.90;56.20
45233;DHT22;30969;51.052;17.056;2023-03-23T08:17:11;16.00;56.10
45233;DHT22;30969;51.052;17.056;2023-03-23T08:22:13;16.10;56.00
45233;DHT22;30969;51.052;17.056;2023-03-23T08:27:17;16.30;56.90
45233;DHT22;30969;51.052;17.056;2023-03-23T08:32:19;16.40;55.40
45233;DHT22;30969;51.052;17.056;2023-03-23T08:37:21;16.40;55.10
45233;DHT22;30969;51.052;17.056;2023-03-23T08:42:25;16.50;55.20
45233;DHT22;30969;51.052;17.056;2023-03-23T08:47:28;16.60;54.90
45233;DHT22;30969;51.052;17.056;2023-03-23T08:52:30;16.80;54.30
45233;DHT22;30969;51.052;17.056;2023-03-23T08:57:34;16.90;52.30
45233;DHT22;30969;51.052;17.056;2023-03-23T09:02:37;17.00;52.40
45233;DHT22;30969;51.052;17.056;2023-03-23T09:07:39;16.90;50.80
45233;DHT22;30969;51.052;17.056;2023-03-23T09:12:45;17.00;50.60
45233;DHT22;30969;51.052;17.056;2023-03-23T09:17:50;17.20;50.80
45233;DHT22;30969;51.052;17.056;2023-03-23T09:22:54;17.30;50.00
45233;DHT22;30969;51.052;17.056;2023-03-23T09:27:58;17.30;50.30
45233;DHT22;30969;51.052;17.056;2023-03-23T09:33:02;17.30;50.20
45233;DHT22;30969;51.052;17.056;2023-03-23T09:38:05;17.30;50.20
45233;DHT22;30969;51.052;17.056;2023-03-23T09:43:31;17.40;50.90
45233;DHT22;30969;51.052;17.056;2023-03-23T09:48:46;17.50;50.50
45233;DHT22;30969;51.052;17.056;2023-03-23T09:53:52;17.50;49.80
45233;DHT22;30969;51.052;17.056;2023-03-23T09:58:59;17.60;49.60
45233;DHT22;30969;51.052;17.056;2023-03-23T10:04:07;17.60;49.10
45233;DHT22;30969;51.052;17.056;2023-03-23T10:09:15;17.60;49.30
45233;DHT22;30969;51.052;17.056;2023-03-23T10:14:28;17.60;49.10
45233;DHT22;30969;51.052;17.056;2023-03-23T10:19:37;17.70;49.60
45233;DHT22;30969;51.052;17.056;2023-03-23T10:24:46;17.80;48.90
45233;DHT22;30969;51.052;17.056;2023-03-23T10:29:55;17.90;48.60
45233;DHT22;30969;51.052;17.056;2023-03-23T10:35:01;18.00;48.60
45233;DHT22;30969;51.052;17.056;2023-03-23T10:40:12;18.20;48.70
45233;DHT22;30969;51.052;17.056;2023-03-23T10:45:20;18.40;48.40
45233;DHT22;30969;51.052;17.056;2023-03-23T10:50:27;18.40;46.10
45233;DHT22;30969;51.052;17.056;2023-03-23T10:55:38;18.50;45.00
45233;DHT22;30969;51.052;17.056;2023-03-23T11:00:44;18.50;45.00
45233;DHT22;30969;51.052;17.056;2023-03-23T11:05:50;18.60;45.10
45233;DHT22;30969;51.052;17.056;2023-03-23T11:10:55;18.50;45.00
45233;DHT22;30969;51.052;17.056;2023-03-23T11:15:59;18.60;44.60
45233;DHT22;30969;51.052;17.056;2023-03-23T11:21:02;18.70;44.60
45233;DHT22;30969;51.052;17.056;2023-03-23T11:26:12;18.70;44.50
45233;DHT22;30969;51.052;17.056;2023-03-23T11:31:17;18.90;44.70
45233;DHT22;30969;51.052;17.056;2023-03-23T11:36:30;19.00;45.20
45233;DHT22;30969;51.052;17.056;2023-03-23T11:41:37;19.10;44.30
45233;DHT22;30969;51.052;17.056;2023-03-23T11:46:51;19.20;44.70
45233;DHT22;30969;51.052;17.056;2023-03-23T11:52:02;19.30;43.90
45233;DHT22;30969;51.052;17.056;2023-03-23T11:57:10;19.30;43.90
45233;DHT22;30969;51.052;17.056;2023-03-23T12:02:32;19.20;43.60
45233;DHT22;30969;51.052;17.056;2023-03-23T12:07:46;19.30;43.70
45233;DHT22;30969;51.052;17.056;2023-03-23T12:13:00;19.30;43.50
45233;DHT22;30969;51.052;17.056;2023-03-23T12:18:15;19.20;43.50
45233;DHT22;30969;51.052;17.056;2023-03-23T12:23:23;19.20;43.60
45233;DHT22;30969;51.052;17.056;2023-03-23T12:28:37;19.20;43.90
45233;DHT22;30969;51.052;17.056;2023-03-23T12:33:54;19.20;43.60
45233;DHT22;30969;51.052;17.056;2023-03-23T12:39:12;19.10;43.80
45233;DHT22;30969;51.052;17.056;2023-03-23T12:44:19;19.10;44.00
45233;DHT22;30969;51.052;17.056;2023-03-23T12:49:31;19.10;44.50
45233;DHT22;30969;51.052;17.056;2023-03-23T12:54:39;19.10;44.10
45233;DHT22;30969;51.052;17.056;2023-03-23T12:59:48;19.10;44.10
45233;DHT22;30969;51.052;17.056;2023-03-23T13:05:05;19.00;44.40
45233;DHT22;30969;51.052;17.056;2023-03-23T13:10:16;19.00;44.50
45233;DHT22;30969;51.052;17.056;2023-03-23T13:15:24;19.10;44.80
45233;DHT22;30969;51.052;17.056;2023-03-23T13:20:43;19.20;44.80
45233;DHT22;30969;51.052;17.056;2023-03-23T13:25:55;19.20;44.80
45233;DHT22;30969;51.052;17.056;2023-03-23T13:31:01;19.30;44.90
45233;DHT22;30969;51.052;17.056;2023-03-23T13:36:09;19.30;44.60
45233;DHT22;30969;51.052;17.056;2023-03-23T13:41:13;19.40;44.70
45233;DHT22;30969;51.052;17.056;2023-03-23T13:46:28;19.40;44.70
45233;DHT22;30969;51.052;17.056;2023-03-23T13:51:46;19.40;44.50
45233;DHT22;30969;51.052;17.056;2023-03-23T13:56:55;19.40;44.30
45233;DHT22;30969;51.052;17.056;2023-03-23T14:02:30;19.40;45.50
45233;DHT22;30969;51.052;17.056;2023-03-23T14:07:59;19.40;44.80
45233;DHT22;30969;51.052;17.056;2023-03-23T14:13:10;19.40;45.00
45233;DHT22;30969;51.052;17.056;2023-03-23T14:18:15;19.40;45.10
45233;DHT22;30969;51.052;17.056;2023-03-23T14:23:19;19.40;45.30
45233;DHT22;30969;51.052;17.056;2023-03-23T14:28:22;19.30;45.30
45233;DHT22;30969;51.052;17.056;2023-03-23T14:33:25;19.30;45.40
45233;DHT22;30969;51.052;17.056;2023-03-23T14:38:30;19.40;45.50
45233;DHT22;30969;51.052;17.056;2023-03-23T14:43:34;19.50;45.50
45233;DHT22;30969;51.052;17.056;2023-03-23T14:48:38;19.50;45.90
45233;DHT22;30969;51.052;17.056;2023-03-23T14:53:43;19.50;46.30
45233;DHT22;30969;51.052;17.056;2023-03-23T14:58:47;19.50;46.50
45233;DHT22;30969;51.052;17.056;2023-03-23T15:03:53;19.60;46.20
45233;DHT22;30969;51.052;17.056;2023-03-23T15:09:00;19.50;46.20
45233;DHT22;30969;51.052;17.056;2023-03-23T15:14:09;19.50;46.50
45233;DHT22;30969;51.052;17.056;2023-03-23T15:19:16;19.60;46.90
45233;DHT22;30969;51.052;17.056;2023-03-23T15:24:27;19.50;47.10
45233;DHT22;30969;51.052;17.056;2023-03-23T15:29:30;19.50;47.00
45233;DHT22;30969;51.052;17.056;2023-03-23T15:34:34;19.40;47.20
45233;DHT22;30969;51.052;17.056;2023-03-23T15:39:41;19.40;47.30
45233;DHT22;30969;51.052;17.056;2023-03-23T15:44:55;19.50;47.40
45233;DHT22;30969;51.052;17.056;2023-03-23T15:50:04;19.60;47.20
45233;DHT22;30969;51.052;17.056;2023-03-23T15:55:21;19.60;47.40
45233;DHT22;30969;51.052;17.056;2023-03-23T16:00:25;19.60;47.40
45233;DHT22;30969;51.052;17.056;2023-03-23T16:05:29;19.50;47.60
45233;DHT22;30969;51.052;17.056;2023-03-23T16:10:34;19.60;47.70
45233;DHT22;30969;51.052;17.056;2023-03-23T16:15:40;19.60;47.80
45233;DHT22;30969;51.052;17.056;2023-03-23T16:20:44;19.60;47.60
45233;DHT22;30969;51.052;17.056;2023-03-23T16:25:49;19.60;47.60
45233;DHT22;30969;51.052;17.056;2023-03-23T16:30:53;19.60;47.60
45233;DHT22;30969;51.052;17.056;2023-03-23T16:35:56;19.60;47.70
45233;DHT22;30969;51.052;17.056;2023-03-23T16:41:01;19.50;47.80
45233;DHT22;30969;51.052;17.056;2023-03-23T16:46:05;19.50;48.10
45233;DHT22;30969;51.052;17.056;2023-03-23T16:51:08;19.40;48.10
45233;DHT22;30969;51.052;17.056;2023-03-23T16:56:13;19.40;48.30
45233;DHT22;30969;51.052;17.056;2023-03-23T17:01:17;19.30;48.40
45233;DHT22;30969;51.052;17.056;2023-03-23T17:06:21;19.20;48.60
45233;DHT22;30969;51.052;17.056;2023-03-23T17:11:25;19.10;48.40
45233;DHT22;30969;51.052;17.056;2023-03-23T17:16:29;19.10;48.70
45233;DHT22;30969;51.052;17.056;2023-03-23T17:21:32;19.00;48.80
45233;DHT22;30969;51.052;17.056;2023-03-23T17:26:38;18.90;48.90
45233;DHT22;30969;51.052;17.056;2023-03-23T17:31:42;18.90;49.00
45233;DHT22;30969;51.052;17.056;2023-03-23T17:36:45;18.80;49.00
45233;DHT22;30969;51.052;17.056;2023-03-23T17:41:50;18.80;49.00
45233;DHT22;30969;51.052;17.056;2023-03-23T17:46:54;18.70;49.10
45233;DHT22;30969;51.052;17.056;2023-03-23T17:51:59;18.60;49.30
45233;DHT22;30969;51.052;17.056;2023-03-23T17:57:04;18.60;49.40
45233;DHT22;30969;51.052;17.056;2023-03-23T18:02:09;18.60;49.60
45233;DHT22;30969;51.052;17.056;2023-03-23T18:07:15;18.50;49.80
45233;DHT22;30969;51.052;17.056;2023-03-23T18:12:21;18.50;50.10
45233;DHT22;30969;51.052;17.056;2023-03-23T18:17:25;18.40;50.10
45233;DHT22;30969;51.052;17.056;2023-03-23T18:22:29;18.40;50.20
45233;DHT22;30969;51.052;17.056;2023-03-23T18:27:34;18.40;50.10
45233;DHT22;30969;51.052;17.056;2023-03-23T18:32:39;18.40;50.30
45233;DHT22;30969;51.052;17.056;2023-03-23T18:37:43;18.40;50.30
45233;DHT22;30969;51.052;17.056;2023-03-23T18:42:50;18.40;50.40
45233;DHT22;30969;51.052;17.056;2023-03-23T18:47:53;18.40;50.40
45233;DHT22;30969;51.052;17.056;2023-03-23T18:52:57;18.30;50.40
45233;DHT22;30969;51.052;17.056;2023-03-23T18:58:03;18.30;50.30
45233;DHT22;30969;51.052;17.056;2023-03-23T19:03:06;18.30;50.50
45233;DHT22;30969;51.052;17.056;2023-03-23T19:08:11;18.30;50.50
45233;DHT22;30969;51.052;17.056;2023-03-23T19:13:16;18.20;50.60
45233;DHT22;30969;51.052;17.056;2023-03-23T19:18:21;18.20;50.70
45233;DHT22;30969;51.052;17.056;2023-03-23T19:23:25;18.20;50.80
45233;DHT22;30969;51.052;17.056;2023-03-23T19:28:34;18.10;50.90
45233;DHT22;30969;51.052;17.056;2023-03-23T19:33:41;18.10;50.90
45233;DHT22;30969;51.052;17.056;2023-03-23T19:38:48;18.10;51.00
45233;DHT22;30969;51.052;17.056;2023-03-23T19:43:55;18.10;51.10
45233;DHT22;30969;51.052;17.056;2023-03-23T19:48:59;18.10;51.20
45233;DHT22;30969;51.052;17.056;2023-03-23T19:54:03;18.10;51.20
45233;DHT22;30969;51.052;17.056;2023-03-23T19:59:14;18.00;51.30
45233;DHT22;30969;51.052;17.056;2023-03-23T20:04:19;18.00;51.70
45233;DHT22;30969;51.052;17.056;2023-03-23T20:09:27;18.00;51.80
45233;DHT22;30969;51.052;17.056;2023-03-23T20:14:34;17.90;52.90
45233;DHT22;30969;51.052;17.056;2023-03-23T20:19:39;17.90;52.10
45233;DHT22;30969;51.052;17.056;2023-03-23T20:24:44;17.80;52.30
45233;DHT22;30969;51.052;17.056;2023-03-23T20:29:49;17.90;52.30
45233;DHT22;30969;51.052;17.056;2023-03-23T20:34:54;17.90;52.50
45233;DHT22;30969;51.052;17.056;2023-03-23T20:39:58;17.80;52.60
45233;DHT22;30969;51.052;17.056;2023-03-23T20:45:05;17.90;52.70
45233;DHT22;30969;51.052;17.056;2023-03-23T20:50:10;17.80;52.80
45233;DHT22;30969;51.052;17.056;2023-03-23T20:55:15;17.90;52.80
45233;DHT22;30969;51.052;17.056;2023-03-23T21:00:21;17.80;52.90
45233;DHT22;30969;51.052;17.056;2023-03-23T21:05:27;17.70;52.90
45233;DHT22;30969;51.052;17.056;2023-03-23T21:10:31;17.70;53.00
45233;DHT22;30969;51.052;17.056;2023-03-23T21:15:37;17.70;53.10
45233;DHT22;30969;51.052;17.056;2023-03-23T21:20:42;17.60;53.10
45233;DHT22;30969;51.052;17.056;2023-03-23T21:25:46;17.60;53.30
45233;DHT22;30969;51.052;17.056;2023-03-23T21:30:51;17.50;53.30
45233;DHT22;30969;51.052;17.056;2023-03-23T21:35:56;17.50;53.40
45233;DHT22;30969;51.052;17.056;2023-03-23T21:41:05;17.40;53.60
45233;DHT22;30969;51.052;17.056;2023-03-23T21:46:12;17.40;53.70
45233;DHT22;30969;51.052;17.056;2023-03-23T21:51:21;17.40;53.80
45233;DHT22;30969;51.052;17.056;2023-03-23T21:56:26;17.30;53.80
45233;DHT22;30969;51.052;17.056;2023-03-23T22:01:31;17.30;54.10
45233;DHT22;30969;51.052;17.056;2023-03-23T22:06:38;17.20;54.10
45233;DHT22;30969;51.052;17.056;2023-03-23T22:11:43;17.20;54.30
45233;DHT22;30969;51.052;17.056;2023-03-23T22:16:48;17.20;54.40
45233;DHT22;30969;51.052;17.056;2023-03-23T22:21:52;17.20;54.30
45233;DHT22;30969;51.052;17.056;2023-03-23T22:26:56;17.10;54.30
45233;DHT22;30969;51.052;17.056;2023-03-23T22:32:01;17.00;54.50
45233;DHT22;30969;51.052;17.056;2023-03-23T22:37:04;16.90;54.70
45233;DHT22;30969;51.052;17.056;2023-03-23T22:42:09;16.90;54.70
45233;DHT22;30969;51.052;17.056;2023-03-23T22:47:16;16.90;54.80
45233;DHT22;30969;51.052;17.056;2023-03-23T22:52:19;16.80;54.80
45233;DHT22;30969;51.052;17.056;2023-03-23T22:57:23;16.80;54.90
45233;DHT22;30969;51.052;17.056;2023-03-23T23:02:27;16.70;55.00
45233;DHT22;30969;51.052;17.056;2023-03-23T23:07:31;16.70;55.00
45233;DHT22;30969;51.052;17.056;2023-03-23T23:12:35;16.70;55.10
45233;DHT22;30969;51.052;17.056;2023-03-23T23:17:39;16.60;55.20
45233;DHT22;30969;51.052;17.056;2023-03-23T23:22:44;16.60;55.30
45233;DHT22;30969;51.052;17.056;2023-03-23T23:27:48;16.50;55.40
45233;DHT22;30969;51.052;17.056;2023-03-23T23:32:54;16.50;55.40
45233;DHT22;30969;51.052;17.056;2023-03-23T23:37:57;16.50;55.60
45233;DHT22;30969;51.052;17.056;2023-03-23T23:43:02;16.50;55.80
45233;DHT22;30969;51.052;17.056;2023-03-23T23:48:07;16.50;55.90
45233;DHT22;30969;51.052;17.056;2023-03-23T23:53:10;16.50;56.00
45233;DHT22;30969;51.052;17.056;2023-03-23T23:58:14;16.50;56.10
